MST,Max TemperatureF,Mean TemperatureF,Min TemperatureF,Max Dew PointF,MeanDew PointF,Min DewpointF,Max Humidity, Mean Humidity, Min Humidity, Max Sea Level PressureIn, Mean Sea Level PressureIn, Min Sea Level PressureIn, Max VisibilityMiles, Mean VisibilityMiles, Min VisibilityMiles, Max Wind SpeedMPH, Mean Wind SpeedMPH, Max Gust SpeedMPH,PrecipitationIn, CloudCover, Events, WindDirDegrees
2012-12-1,44,33,22,24,17,5,64,47,30,30.01,29.91,29.76,10,10,10,21,9,29,0.00,3,,357
2012-12-2,48,32,16,22,4,-4,49,31,12,30.04,29.89,29.70,10,10,10,17,4,23,0.00,0,,191
2012-12-3,35,27,18,26,17,3,92,59,26,30.19,29.98,29.65,10,8,1,21,10,26,0.02,4,Snow,330
2012-12-4,40,24,8,16,4,-5,63,42,20,30.43,30.31,30.20,10,10,10,20,9,25,0.00,1,,350
2012-12-5,48,36,23,23,19,14,81,55,28,30.20,30.00,29.79,10,10,10,20,6,24,0.00,4,,351
2012-12-6,38,28,17,25,21,15,85,69,52,30.06,29.84,29.75,10,10,10,18,9,25,0.00,3,,347
2012-12-7,32,28,23,19,15,12,74,61,47,29.96,29.79,29.73,10,10,5,26,8,33,T,5,Snow,340
2012-12-8,29,21,13,18,14,9,96,69,42,29.77,29.71,29.60,10,4,0,28,10,37,0.14,7,Fog-Snow,317
2012-12-9,13,2,-10,9,-3,-15,92,74,56,30.24,29.90,29.71,10,5,1,21,10,26,0.15,6,Snow,2
2012-12-10,12,2,-9,7,1,-15,91,78,65,30.20,29.94,29.82,10,3,1,22,9,32,0.13,7,Snow,331
2012-12-11,19,12,4,8,3,-1,88,72,56,30.03,29.92,29.84,10,6,1,26,9,33,0.04,6,Snow,344
2012-12-12,35,19,3,11,5,1,91,62,32,30.04,29.93,29.79,10,10,10,17,5,23,0.00,0,,152
2012-12-13,32,19,5,8,4,1,73,52,30,30.03,29.92,29.83,10,10,10,18,5,21,0.00,0,,141
2012-12-14,26,16,6,21,15,1,88,75,61,29.91,29.66,29.49,10,7,1,16,6,23,0.01,6,Snow,35
2012-12-15,24,14,3,18,12,1,92,80,68,29.77,29.71,29.62,10,7,0,15,5,22,0.03,6,Fog-Snow,359
2012-12-16,21,12,2,10,7,1,91,72,52,29.85,29.74,29.66,10,6,0,25,9,35,0.01,8,Fog-Snow,321
2012-12-17,24,18,12,17,12,3,88,76,64,29.82,29.75,29.65,10,4,0,26,12,41,0.06,8,Fog-Snow,323
2012-12-18,27,21,14,16,12,7,88,65,42,29.72,29.57,29.42,10,8,2,22,10,29,0.01,7,Snow,256
2012-12-19,21,3,-15,16,6,-21,92,74,56,30.36,29.57,29.30,10,4,0,26,11,35,0.08,7,Snow,353
2012-12-20,26,5,-17,0,-10,-22,74,48,21,30.61,30.47,30.35,10,10,10,20,7,25,0.00,0,,10
2012-12-21,31,16,0,3,-4,-8,66,49,31,30.44,30.30,30.18,10,10,10,9,3,13,0.00,0,,105
2012-12-22,40,21,2,-7,-14,-23,62,36,9,30.28,30.08,29.83,10,10,10,14,6,18,0.00,0,,43
2012-12-23,28,18,7,14,1,-21,69,40,11,30.02,29.94,29.84,10,10,10,22,6,33,T,2,,26
2012-12-24,27,20,13,18,13,3,100,71,42,29.85,29.63,29.52,10,4,0,17,5,22,0.19,6,Fog-Snow,179
2012-12-25,20,8,-4,13,4,-5,91,73,54,30.11,29.87,29.63,10,9,2,15,6,20,0.01,4,Snow,358
2012-12-26,26,9,-8,15,6,-7,88,73,57,29.98,29.72,29.49,10,9,2,18,6,25,T,6,Snow,130
2012-12-27,15,9,2,9,4,-3,87,73,58,29.80,29.60,29.46,10,6,1,17,7,24,0.02,8,Snow,352
2012-12-28,11,1,-9,0,-4,-11,91,75,58,30.31,29.95,29.70,10,7,2,17,8,22,T,6,Snow,352
2012-12-29,27,8,-12,-1,-12,-17,83,54,25,30.39,30.21,29.96,10,10,10,15,4,20,0.00,0,,61
2012-12-30,23,10,-4,9,-3,-13,67,53,39,30.05,29.94,29.81,10,10,10,12,3,14,0.00,3,,165
2012-12-31,20,9,-2,11,2,-6,91,78,64,30.00,29.79,29.69,10,6,1,15,5,20,0.05,6,Snow,22